Ana Sayfa
METAR-TAF:

METAR-TAF

Havaalanları :

Fuerteventura Havalimanı

Fuerteventura, İspanya

Enlem: 28-27N, Boylam: 013-52W, yükseklik: 22 m

Güncel hava durumu gözlemi

Rapor saat 16:30 UTC de 24 dakika önce yapıldı.
Rüzgar doğu/kuzeydoğudan 10 kt
Sıcaklık 20°C
Nem 64%
Basınç 1016 hPa
Görüş mesafesi 10 km veya daha fazla
2300 ft yükseklikte az bulutlu

METAR: GCFV 021630Z 06010KT 9999 FEW023 20/13 Q1016

Saat: 17:54 (16:54 UTC)

Tahmin

Rapor saat 14:00 UTC de 2 saat ve 54 dakika önce yapıldı.
Ayın 02'si saat 15 UTC'den ayın 03'si saat 15 UTC'ye kadar geçerli Tahmin
Rüzgar kuzeydoğudan 12 kt
Görüş mesafesi 10 km veya daha fazla
3000 ft yükseklikte az bulutlu
Geçici
ayın 02'si saat 22 UTC'den ayın 03'si saat 09 UTC'ye kadar
Rüzgar kuzeydan 8 kt
Dönüşüyor
ayın 03'si saat 12 UTC'den ayın 03'si saat 14 UTC'ye kadar
Rüzgar doğu/güneydoğudan 9 kt

TAF: GCFV 021400Z 0215/0315 05012KT 9999 FEW030 TX21/0215Z TN15/0306Z TEMPO 0222/0309 35008KT BECMG 0312/0314 11009KT

4.000'den fazla havaalanı için hava durumu gözlemleri ve tahminleri (METAR ve TAF raporları).

Kullanılabilir istasyonlar harita üzerinde sarı ve kırmızı noktalarla gösterilir.

İstasyonun adını görmek için fareyi noktanın üzerinde gezdirin.

Sonrasında hava gözlem ve tahminlerini görmek için tıklayın.

Haritayı değiştirmek için: yaklaştırmak için siyah artı işaretli yeşil düğmeye ve uzaklaştırmak için de eksi işaretli düğmeye hızla tıklayın; bitişik haritalar için yeşil okları kullanın.


METAR-TAF: